Time;durP1;ratioP1;P1;durP2;ratioP2;P2;SDS_P1;SDS_P2;PMS_P1;PMS_P2;Temp;Humidity;BMP_temperature;BMP_pressure;BME280_temperature;BME280_humidity;BME280_pressure;Samples;Min_cycle;Max_cycle;Signal;HPM_P1;HPM_P2
2020/12/15 00:01:55;;;;;;;2.00;0.70;;;;;;;8.25;68.97;97077.69;4967440;28;20472;-63
2020/12/15 00:04:21;;;;;;;1.35;0.70;;;;;;;8.58;70.11;97125.06;4969207;28;20070;-62
2020/12/15 00:06:46;;;;;;;1.23;0.80;;;;;;;8.62;70.41;97123.19;4969163;28;20081;-63
2020/12/15 00:09:12;;;;;;;0.70;0.60;;;;;;;8.12;69.62;97051.28;4969007;28;20387;-64
2020/12/15 00:11:37;;;;;;;1.38;0.60;;;;;;;7.96;69.95;97053.22;4968763;28;20058;-63
2020/12/15 00:14:03;;;;;;;0.65;0.60;;;;;;;8.44;69.90;97116.44;4968889;28;20045;-64
2020/12/15 00:16:28;;;;;;;0.57;0.50;;;;;;;8.37;70.11;97119.00;4967248;28;20125;-63
2020/12/15 00:18:54;;;;;;;0.50;0.50;;;;;;;7.85;70.02;97041.91;4969099;28;20034;-63
2020/12/15 00:21:21;;;;;;;0.57;0.50;;;;;;;5.83;70.23;96724.63;4968836;28;20039;-63
2020/12/15 00:23:48;;;;;;;0.45;0.45;;;;;;;7.88;70.63;97045.91;4968867;28;20500;-63
2020/12/15 00:26:14;;;;;;;0.60;0.60;;;;;;;8.43;72.01;97112.03;4968576;28;20027;-63
2020/12/15 00:28:39;;;;;;;0.40;0.40;;;;;;;8.34;71.41;97120.50;4968220;28;20058;-63
2020/12/15 00:31:05;;;;;;;0.57;0.50;;;;;;;8.41;70.51;97119.91;4972453;28;20057;-62
2020/12/15 00:33:30;;;;;;;0.50;0.50;;;;;;;8.45;70.30;97120.78;4987884;28;20038;-62
2020/12/15 00:35:55;;;;;;;0.50;0.50;;;;;;;8.36;69.70;97122.91;4987861;28;20030;-62
2020/12/15 00:38:21;;;;;;;0.60;0.60;;;;;;;8.37;70.40;97096.91;4987969;28;20057;-62
2020/12/15 00:40:46;;;;;;;0.50;0.50;;;;;;;8.45;70.33;97126.31;4987842;28;20492;-62
2020/12/15 00:43:12;;;;;;;0.77;0.55;;;;;;;8.47;70.03;97122.03;4985891;28;20034;-63
2020/12/15 00:45:37;;;;;;;0.60;0.60;;;;;;;7.50;69.02;97051.94;4973782;28;20042;-61
2020/12/15 00:48:04;;;;;;;1.38;0.60;;;;;;;8.43;70.14;97134.13;4967963;28;20039;-62
2020/12/15 00:50:29;;;;;;;0.60;0.60;;;;;;;8.49;70.61;97132.69;4966382;28;20038;-62
2020/12/15 00:52:55;;;;;;;0.70;0.70;;;;;;;8.45;69.98;97129.88;4968389;28;20027;-63
2020/12/15 00:55:20;;;;;;;0.98;0.88;;;;;;;8.50;71.33;97134.31;4968014;28;20035;-62
2020/12/15 00:57:46;;;;;;;2.03;1.15;;;;;;;8.49;73.31;97124.41;4968373;28;20039;-63
2020/12/15 01:00:11;;;;;;;2.05;0.63;;;;;;;8.53;70.03;97111.53;4968030;28;20490;-63
2020/12/15 01:02:37;;;;;;;0.68;0.60;;;;;;;7.73;70.11;97006.91;4967991;28;20371;-62
2020/12/15 01:05:03;;;;;;;0.60;0.60;;;;;;;8.47;70.78;97124.00;4966623;28;20045;-62
2020/12/15 01:07:28;;;;;;;0.50;0.50;;;;;;;8.33;70.64;97112.59;4967809;28;20030;-63
2020/12/15 01:09:54;;;;;;;0.50;0.50;;;;;;;8.33;70.91;97096.03;4968060;28;20564;-62
2020/12/15 01:12:19;;;;;;;0.75;0.60;;;;;;;8.37;71.07;97119.00;4967854;28;20030;-62
2020/12/15 01:14:44;;;;;;;0.60;0.60;;;;;;;8.50;70.82;97123.28;4966263;28;20057;-62
2020/12/15 01:17:10;;;;;;;0.50;0.50;;;;;;;8.43;70.40;97134.13;4967343;28;20042;-62
2020/12/15 01:19:35;;;;;;;0.50;0.50;;;;;;;8.44;70.06;97125.50;4967646;28;20042;-62
2020/12/15 01:22:02;;;;;;;0.70;0.60;;;;;;;8.48;71.19;97125.59;4967653;28;20035;-62
2020/12/15 01:24:28;;;;;;;0.50;0.50;;;;;;;8.60;70.72;97122.78;4967397;28;20038;-62
2020/12/15 01:26:53;;;;;;;0.50;0.50;;;;;;;8.54;70.76;97124.16;4967604;28;20037;-62
2020/12/15 01:29:19;;;;;;;1.27;0.70;;;;;;;8.37;70.01;97102.44;4967457;28;20445;-62
2020/12/15 01:31:44;;;;;;;1.27;0.80;;;;;;;5.96;70.62;96720.66;4966240;28;20493;-62
2020/12/15 01:34:10;;;;;;;1.05;0.70;;;;;;;7.91;70.61;97023.13;4967829;28;20153;-61
2020/12/15 01:36:36;;;;;;;0.57;0.57;;;;;;;8.09;70.73;97057.50;4966389;28;20058;-63
2020/12/15 01:39:03;;;;;;;3.17;0.70;;;;;;;8.48;72.08;97120.06;4967908;28;20113;-63
2020/12/15 01:41:29;;;;;;;0.77;0.68;;;;;;;8.50;71.82;97106.72;4967273;28;20130;-63
2020/12/15 01:44:03;;;;;;;0.93;0.73;;;;;;;8.22;71.36;97089.41;4965516;28;20113;-63
2020/12/15 01:46:30;;;;;;;0.80;0.70;;;;;;;8.41;72.04;97115.16;4985599;28;20104;-62
2020/12/15 01:48:56;;;;;;;0.90;0.80;;;;;;;7.50;73.56;96989.34;4985327;28;20507;-61
2020/12/15 01:51:24;;;;;;;1.48;0.70;;;;;;;8.34;73.32;97125.22;4986313;28;20591;-61
2020/12/15 01:53:54;;;;;;;2.25;1.00;;;;;;;7.81;73.14;97045.72;4986614;28;20505;-61
2020/12/15 01:56:20;;;;;;;0.60;0.60;;;;;;;8.23;71.55;97113.91;4986281;28;20038;-61
2020/12/15 01:58:51;;;;;;;1.38;0.65;;;;;;;8.13;73.35;97108.06;4984777;28;20026;-61
2020/12/15 02:01:17;;;;;;;1.33;0.70;;;;;;;8.25;72.39;97119.06;4986290;28;20062;-61
2020/12/15 02:03:42;;;;;;;1.33;0.73;;;;;;;8.09;73.85;97119.00;4986351;28;20556;-62
2020/12/15 02:06:08;;;;;;;1.50;0.90;;;;;;;7.93;75.07;97128.38;4985736;28;20030;-63
2020/12/15 02:08:33;;;;;;;0.93;0.70;;;;;;;7.40;74.81;97042.19;4986197;28;20046;-62
2020/12/15 02:10:59;;;;;;;1.25;0.80;;;;;;;7.95;74.47;97143.41;4986326;28;20041;-63
2020/12/15 02:13:24;;;;;;;1.92;0.95;;;;;;;8.00;76.36;97125.84;4986254;28;20074;-62
2020/12/15 02:15:50;;;;;;;2.70;1.40;;;;;;;7.92;80.28;97137.81;4985532;28;20535;-62
2020/12/15 02:18:16;;;;;;;2.15;1.30;;;;;;;7.80;83.58;97141.41;4986308;28;20038;-62
2020/12/15 02:20:42;;;;;;;4.47;2.30;;;;;;;7.27;85.07;97073.69;4986012;28;20153;-62
2020/12/15 02:23:07;;;;;;;4.40;2.15;;;;;;;7.41;87.67;97151.25;4985750;28;20524;-63
2020/12/15 02:25:33;;;;;;;5.57;2.28;;;;;;;7.46;89.02;97156.53;4985728;28;20030;-62
2020/12/15 02:27:58;;;;;;;3.90;2.35;;;;;;;7.29;89.67;97150.47;4984178;28;20051;-62
2020/12/15 02:30:24;;;;;;;5.30;2.92;;;;;;;7.33;89.18;97157.69;4985375;28;20038;-62
2020/12/15 02:32:49;;;;;;;6.28;3.08;;;;;;;7.20;90.47;97158.88;4984006;28;20034;-62
2020/12/15 02:35:15;;;;;;;7.00;3.83;;;;;;;7.18;91.10;97161.19;4985734;28;20088;-63
2020/12/15 02:37:40;;;;;;;11.07;4.65;;;;;;;7.16;91.08;97155.19;4985892;28;20092;-62
2020/12/15 02:40:06;;;;;;;12.27;5.80;;;;;;;7.14;91.63;97149.25;4985277;28;20428;-62
2020/12/15 02:42:32;;;;;;;31.13;17.70;;;;;;;7.25;91.08;97155.91;4984340;28;20488;-62
2020/12/15 02:44:58;;;;;;;13.65;8.13;;;;;;;7.15;91.11;97156.34;4984612;28;20200;-62
2020/12/15 02:47:25;;;;;;;14.40;8.30;;;;;;;6.35;91.40;97038.94;4984248;28;20507;-62
2020/12/15 02:49:50;;;;;;;37.25;20.92;;;;;;;7.12;91.21;97145.22;4985506;28;20420;-62
2020/12/15 02:52:16;;;;;;;34.53;18.58;;;;;;;5.00;91.61;96836.03;4984211;28;20034;-62
2020/12/15 02:54:42;;;;;;;52.20;24.10;;;;;;;6.69;92.50;97126.53;4985505;28;20030;-62
2020/12/15 02:57:08;;;;;;;21.20;9.15;;;;;;;6.42;92.44;97077.66;4983448;28;20046;-62
2020/12/15 02:59:33;;;;;;;18.75;9.88;;;;;;;6.90;92.61;97157.50;4985264;28;20041;-62
2020/12/15 03:01:58;;;;;;;23.63;12.95;;;;;;;6.88;92.54;97157.03;4983732;28;20042;-62
2020/12/15 03:04:24;;;;;;;25.73;11.73;;;;;;;6.80;93.00;97160.72;4985453;28;20065;-62
2020/12/15 03:06:49;;;;;;;46.85;22.38;;;;;;;6.42;93.69;97154.69;4985532;28;20042;-62
2020/12/15 03:09:15;;;;;;;20.33;9.50;;;;;;;6.55;90.51;97164.59;4984824;28;20077;-62
2020/12/15 03:11:40;;;;;;;4.30;2.30;;;;;;;6.56;85.94;97181.91;4983493;28;20047;-62
2020/12/15 03:14:06;;;;;;;2.58;1.40;;;;;;;6.30;84.85;97124.41;4983717;28;20863;-62
2020/12/15 03:16:31;;;;;;;2.50;1.30;;;;;;;4.13;84.01;96744.78;4983777;28;20505;-62
2020/12/15 03:18:57;;;;;;;1.73;1.02;;;;;;;6.20;84.91;97075.34;4985089;28;20030;-62
2020/12/15 03:21:23;;;;;;;3.95;1.08;;;;;;;6.81;85.89;97187.09;4985184;28;20034;-62
2020/12/15 03:23:50;;;;;;;4.28;1.85;;;;;;;6.84;86.05;97188.38;4985120;28;20034;-63
2020/12/15 03:26:17;;;;;;;4.10;1.33;;;;;;;6.88;85.89;97190.09;4983468;28;20125;-62
2020/12/15 03:28:42;;;;;;;1.52;1.00;;;;;;;6.83;85.73;97198.56;4983299;28;20133;-64
2020/12/15 03:31:08;;;;;;;2.03;0.80;;;;;;;6.42;84.10;97151.94;4983365;28;20161;-62
2020/12/15 03:33:33;;;;;;;2.33;1.10;;;;;;;6.94;82.07;97196.97;4983204;28;20022;-62
2020/12/15 03:35:58;;;;;;;2.58;0.90;;;;;;;7.06;80.99;97208.00;4985166;28;20442;-62
2020/12/15 03:38:24;;;;;;;3.38;1.10;;;;;;;7.18;79.58;97204.44;4985057;28;20034;-62
2020/12/15 03:40:49;;;;;;;1.35;0.90;;;;;;;7.28;79.59;97204.00;4985174;28;20081;-62
2020/12/15 03:43:15;;;;;;;1.40;1.05;;;;;;;7.06;80.20;97185.16;4985223;28;20393;-62
2020/12/15 03:45:44;;;;;;;0.82;0.70;;;;;;;7.18;79.69;97221.78;4974818;28;20050;-62
2020/12/15 03:48:13;;;;;;;1.38;0.70;;;;;;;6.97;79.17;97171.50;4964092;28;20090;-62
2020/12/15 03:50:39;;;;;;;1.48;0.70;;;;;;;7.22;78.94;97206.16;4965295;28;20101;-62
2020/12/15 03:53:05;;;;;;;2.65;1.40;;;;;;;7.33;81.74;97229.34;4966020;28;20027;-61
2020/12/15 03:55:30;;;;;;;3.95;1.58;;;;;;;6.30;84.95;97098.84;4966714;28;20034;-62
2020/12/15 03:57:56;;;;;;;3.25;1.85;;;;;;;7.03;85.04;97236.25;4969536;28;20464;-63
2020/12/15 04:00:22;;;;;;;2.92;1.92;;;;;;;6.81;86.54;97242.16;4968978;28;20031;-62
2020/12/15 04:02:47;;;;;;;3.03;1.58;;;;;;;6.57;86.58;97187.06;4968936;28;20549;-62
2020/12/15 04:05:13;;;;;;;3.42;1.70;;;;;;;6.27;86.59;97152.59;4968680;28;20061;-62
2020/12/15 04:07:42;;;;;;;5.95;3.17;;;;;;;6.80;87.07;97254.31;4969188;28;20030;-63
2020/12/15 04:10:08;;;;;;;4.65;2.28;;;;;;;6.61;89.26;97261.50;4967353;28;20035;-62
2020/12/15 04:12:34;;;;;;;5.40;2.58;;;;;;;5.89;91.35;97187.75;4967327;28;20047;-62
2020/12/15 04:14:59;;;;;;;7.13;2.50;;;;;;;6.20;93.15;97284.34;4969165;28;20045;-61
2020/12/15 04:17:25;;;;;;;5.97;3.28;;;;;;;5.66;94.48;97224.91;4968627;28;20046;-62
2020/12/15 04:19:50;;;;;;;7.20;3.70;;;;;;;5.73;96.43;97260.91;4968454;28;20054;-62
2020/12/15 04:22:16;;;;;;;10.13;5.10;;;;;;;5.57;96.69;97215.94;4967313;28;20126;-63
2020/12/15 04:24:41;;;;;;;24.80;10.73;;;;;;;5.93;97.16;97276.63;4968651;28;20031;-61
2020/12/15 04:27:07;;;;;;;51.67;23.98;;;;;;;5.76;97.02;97258.31;4966717;28;20181;-62
2020/12/15 04:29:32;;;;;;;57.35;26.23;;;;;;;5.90;97.54;97280.06;4968467;28;20058;-62
2020/12/15 04:31:58;;;;;;;77.20;37.95;;;;;;;5.93;98.19;97291.19;4968627;28;20034;-62
2020/12/15 04:34:23;;;;;;;74.25;32.42;;;;;;;5.99;97.87;97286.31;4967314;28;20081;-62
2020/12/15 04:36:49;;;;;;;24.92;11.80;;;;;;;5.89;98.10;97297.69;4968406;28;20042;-62
2020/12/15 04:39:15;;;;;;;37.30;18.75;;;;;;;5.45;98.48;97221.34;4968487;28;20042;-62
2020/12/15 04:41:40;;;;;;;28.48;16.20;;;;;;;5.76;98.75;97268.50;4968473;28;20140;-62
2020/12/15 04:44:08;;;;;;;11.55;6.10;;;;;;;5.87;98.26;97291.72;4968460;28;20038;-62
2020/12/15 04:46:48;;;;;;;9.93;5.35;;;;;;;5.81;97.62;97276.53;4985464;28;20114;-62
2020/12/15 04:49:21;;;;;;;13.57;6.50;;;;;;;5.35;98.53;97221.72;4987936;28;20026;-62
2020/12/15 04:52:03;;;;;;;20.92;13.57;;;;;;;5.66;99.18;97290.84;4987848;28;20041;-62
2020/12/15 04:54:31;;;;;;;14.77;7.75;;;;;;;5.64;99.77;97293.94;4987906;28;20582;-62
2020/12/15 04:57:01;;;;;;;12.20;7.85;;;;;;;4.85;99.76;97193.41;4987630;28;20070;-62
2020/12/15 04:59:34;;;;;;;53.10;30.10;;;;;;;5.71;99.05;97304.41;4987590;28;20077;-62
2020/12/15 05:02:04;;;;;;;48.85;29.35;;;;;;;5.64;99.44;97304.13;4985242;28;20046;-62
2020/12/15 05:04:39;;;;;;;44.90;24.33;;;;;;;5.69;99.47;97306.69;4987654;28;20034;-62
2020/12/15 05:07:05;;;;;;;77.32;40.78;;;;;;;5.69;99.19;97299.25;4986669;28;20026;-62
2020/12/15 05:09:32;;;;;;;78.85;43.67;;;;;;;5.68;99.49;97303.13;4987233;28;20026;-62
2020/12/15 05:11:58;;;;;;;70.03;38.58;;;;;;;5.70;99.37;97311.06;4987301;28;20264;-63
2020/12/15 05:14:24;;;;;;;64.10;33.65;;;;;;;3.92;99.69;97070.03;4987164;28;20038;-63
2020/12/15 05:16:51;;;;;;;68.68;35.47;;;;;;;5.13;99.35;97241.22;4987211;28;20126;-62
2020/12/15 05:19:16;;;;;;;46.50;25.63;;;;;;;5.60;99.22;97330.66;4987195;28;20045;-63
2020/12/15 05:21:56;;;;;;;30.80;17.05;;;;;;;5.23;98.43;97276.56;4986901;28;20042;-62
2020/12/15 05:24:23;;;;;;;31.63;19.67;;;;;;;5.45;99.51;97323.00;4967495;28;20513;-62
2020/12/15 05:26:49;;;;;;;35.92;18.65;;;;;;;5.41;100.00;97341.25;4965811;28;20050;-63
2020/12/15 05:29:17;;;;;;;29.52;17.05;;;;;;;5.29;100.00;97313.69;4965569;28;20042;-64
2020/12/15 05:31:43;;;;;;;48.92;28.58;;;;;;;5.29;100.00;97308.19;4965707;28;20047;-63
2020/12/15 05:34:12;;;;;;;106.47;56.20;;;;;;;4.93;100.00;97244.72;4967112;28;20042;-63
2020/12/15 05:36:48;;;;;;;98.10;52.88;;;;;;;5.63;100.00;97335.47;4967514;28;20118;-63
2020/12/15 05:39:14;;;;;;;94.38;52.45;;;;;;;4.95;99.26;97220.50;4967354;28;20069;-63
2020/12/15 05:41:39;;;;;;;96.03;51.28;;;;;;;5.38;99.21;97296.03;4967231;28;20497;-63
2020/12/15 05:44:05;;;;;;;88.63;46.05;;;;;;;5.82;99.21;97349.63;4966838;28;20027;-63
2020/12/15 05:46:31;;;;;;;30.15;16.92;;;;;;;5.74;97.22;97310.06;4981261;28;20412;-62
2020/12/15 05:49:06;;;;;;;24.40;13.13;;;;;;;5.79;96.04;97344.78;4986690;28;20121;-63
2020/12/15 05:51:42;;;;;;;24.08;14.88;;;;;;;5.70;94.97;97344.03;4985156;28;20073;-63
2020/12/15 05:54:09;;;;;;;27.73;14.70;;;;;;;5.66;95.56;97345.81;4986410;28;20062;-63
2020/12/15 05:56:36;;;;;;;20.02;11.52;;;;;;;5.63;94.91;97351.97;4986270;28;20049;-64
2020/12/15 05:59:14;;;;;;;15.25;8.13;;;;;;;5.36;94.80;97342.25;4986563;28;20033;-62
2020/12/15 06:01:39;;;;;;;22.95;9.75;;;;;;;5.51;94.38;97360.94;4986399;28;20049;-62
2020/12/15 06:04:05;;;;;;;19.27;8.70;;;;;;;4.88;95.23;97281.38;4984869;28;20097;-62
2020/12/15 06:06:31;;;;;;;12.75;7.13;;;;;;;5.24;95.70;97344.06;4986341;28;20035;-63
2020/12/15 06:08:58;;;;;;;8.75;4.80;;;;;;;5.48;95.00;97377.25;4985939;28;20031;-63
2020/12/15 06:11:26;;;;;;;12.35;6.07;;;;;;;5.50;95.24;97391.50;4985779;28;20042;-62
2020/12/15 06:13:51;;;;;;;22.13;11.27;;;;;;;5.24;96.43;97333.09;4986004;28;20022;-62
2020/12/15 06:16:17;;;;;;;17.48;9.32;;;;;;;5.67;96.04;97358.44;4985928;28;20045;-62
2020/12/15 06:18:43;;;;;;;14.98;8.82;;;;;;;6.01;93.62;97391.25;4985965;28;20162;-63
2020/12/15 06:21:10;;;;;;;22.98;11.70;;;;;;;5.95;94.25;97387.09;4985953;28;20414;-63
2020/12/15 06:23:36;;;;;;;37.00;19.55;;;;;;;6.24;93.28;97384.31;4984125;28;20513;-63
2020/12/15 06:26:01;;;;;;;64.85;30.58;;;;;;;6.37;92.56;97385.22;4985643;28;20030;-63
2020/12/15 06:28:32;;;;;;;68.80;37.30;;;;;;;6.51;92.61;97391.25;4985349;28;20042;-65
2020/12/15 06:30:58;;;;;;;77.80;40.47;;;;;;;6.71;91.51;97443.53;4985936;28;20030;-63
2020/12/15 06:33:34;;;;;;;87.63;47.80;;;;;;;6.71;90.95;97391.25;4985240;28;20044;-62
2020/12/15 06:35:59;;;;;;;197.68;95.18;;;;;;;6.85;90.49;97393.69;4984122;28;20558;-63
2020/12/15 06:38:25;;;;;;;282.13;138.57;;;;;;;6.58;90.75;97329.03;4984021;28;20030;-63
2020/12/15 06:40:51;;;;;;;143.43;70.43;;;;;;;7.10;89.11;97385.19;4985722;28;20042;-63
2020/12/15 06:43:27;;;;;;;137.45;68.85;;;;;;;7.19;88.98;97377.63;4985439;28;20034;-63
2020/12/15 06:46:06;;;;;;;146.38;74.57;;;;;;;7.31;89.39;97390.66;4985437;28;20465;-63
2020/12/15 06:48:34;;;;;;;109.05;57.95;;;;;;;7.37;88.43;97403.88;4985433;28;20030;-64
2020/12/15 06:51:00;;;;;;;96.65;53.42;;;;;;;7.47;87.30;97389.66;4985423;28;20044;-63
2020/12/15 06:53:25;;;;;;;120.15;62.42;;;;;;;7.56;88.75;97387.59;4985325;28;20480;-63
2020/12/15 06:56:01;;;;;;;94.70;54.00;;;;;;;7.73;86.71;97384.63;4985494;28;20034;-63
2020/12/15 06:58:26;;;;;;;89.70;48.42;;;;;;;7.03;88.87;97395.97;4985245;28;20030;-63
2020/12/15 07:00:52;;;;;;;64.05;36.17;;;;;;;7.06;90.48;97372.44;4985268;28;20116;-63
2020/12/15 07:03:33;;;;;;;75.22;44.92;;;;;;;7.56;89.06;97387.59;4985366;28;20085;-63
2020/12/15 07:06:28;;;;;;;46.08;28.77;;;;;;;7.79;86.32;97390.75;4985607;28;20073;-63
2020/12/15 07:09:06;;;;;;;59.10;33.95;;;;;;;6.38;86.31;97170.28;4983447;28;20521;-63
2020/12/15 07:11:32;;;;;;;63.65;35.95;;;;;;;8.07;86.93;97399.13;4983608;28;20042;-63
2020/12/15 07:14:02;;;;;;;60.53;35.58;;;;;;;8.27;85.83;97400.97;4984998;28;20435;-63
2020/12/15 07:16:29;;;;;;;70.38;42.15;;;;;;;8.37;83.26;97406.03;4983704;28;20566;-62
2020/12/15 07:18:54;;;;;;;60.42;35.95;;;;;;;8.50;81.25;97413.16;4983448;28;20035;-62
2020/12/15 07:21:21;;;;;;;48.78;29.77;;;;;;;8.32;81.89;97389.69;4983552;28;20042;-63
2020/12/15 07:23:48;;;;;;;46.83;28.45;;;;;;;8.54;81.80;97394.72;4984838;28;20031;-63
2020/12/15 07:26:19;;;;;;;59.17;31.05;;;;;;;8.71;79.78;97394.47;4985246;28;20042;-62
2020/12/15 07:28:47;;;;;;;113.28;54.03;;;;;;;8.63;79.11;97365.03;4983326;28;20065;-62
2020/12/15 07:31:13;;;;;;;75.63;41.00;;;;;;;9.00;79.55;97407.94;4987630;28;20049;-62
2020/12/15 07:33:41;;;;;;;107.43;56.58;;;;;;;8.66;79.44;97386.44;4989095;28;20050;-62
2020/12/15 07:36:12;;;;;;;100.13;53.00;;;;;;;8.27;78.67;97285.06;4982857;28;20138;-65
2020/12/15 07:38:38;;;;;;;110.45;56.90;;;;;;;8.83;79.01;97364.03;4986073;28;20471;-63
2020/12/15 07:41:11;;;;;;;84.40;45.78;;;;;;;9.36;77.82;97402.25;4988774;28;20126;-61
2020/12/15 07:43:37;;;;;;;60.92;35.78;;;;;;;9.46;76.48;97406.44;4988161;28;20057;-61
2020/12/15 07:46:02;;;;;;;22.52;14.23;;;;;;;9.59;75.76;97408.81;4986749;28;20486;-61
2020/12/15 07:48:29;;;;;;;14.85;9.25;;;;;;;9.12;75.92;97327.75;4988337;28;20041;-62
2020/12/15 07:51:04;;;;;;;9.93;6.82;;;;;;;9.30;76.14;97356.66;4988689;28;20038;-61
2020/12/15 07:53:29;;;;;;;6.15;4.10;;;;;;;9.11;74.53;97326.13;4988856;28;20034;-64
2020/12/15 07:56:03;;;;;;;7.22;3.58;;;;;;;9.59;73.37;97370.09;4987915;28;20037;-62
2020/12/15 07:58:30;;;;;;;7.07;4.80;;;;;;;9.37;72.73;97318.16;4984526;28;20460;-62
2020/12/15 08:00:57;;;;;;;6.15;4.07;;;;;;;9.89;72.75;97414.72;4987958;28;20054;-63
2020/12/15 08:03:22;;;;;;;6.05;3.22;;;;;;;9.39;73.19;97340.72;4987843;28;20050;-66
2020/12/15 08:05:48;;;;;;;6.18;4.20;;;;;;;9.86;73.20;97407.94;4979724;28;20073;-64
2020/12/15 08:08:15;;;;;;;6.75;4.50;;;;;;;9.17;73.60;97263.91;5004658;28;20042;-62
2020/12/15 08:10:40;;;;;;;6.90;4.80;;;;;;;9.14;72.51;97248.06;4985280;28;20034;-62
2020/12/15 08:13:06;;;;;;;7.63;5.00;;;;;;;10.17;71.47;97413.50;4988859;28;20045;-63
2020/12/15 08:15:42;;;;;;;6.13;4.10;;;;;;;10.10;71.52;97429.91;4987458;28;20034;-62
2020/12/15 08:18:10;;;;;;;8.35;5.05;;;;;;;10.22;70.75;97410.47;4986385;28;20026;-63
2020/12/15 08:20:37;;;;;;;6.68;4.15;;;;;;;10.30;71.09;97412.22;4985653;28;20413;-63
2020/12/15 08:23:09;;;;;;;8.30;4.72;;;;;;;10.44;70.57;97406.22;4986558;28;20070;-64
2020/12/15 08:25:45;;;;;;;7.78;5.00;;;;;;;10.55;70.24;97402.53;4976394;28;20488;-62
2020/12/15 08:28:22;;;;;;;7.88;4.82;;;;;;;10.72;70.06;97408.84;4986836;28;20062;-62
2020/12/15 08:30:55;;;;;;;6.07;4.60;;;;;;;10.70;69.91;97404.44;4985345;28;20077;-63
2020/12/15 08:33:28;;;;;;;5.75;4.45;;;;;;;11.03;68.97;97400.41;4979434;28;20072;-63
2020/12/15 08:35:55;;;;;;;8.07;4.82;;;;;;;10.99;67.62;97405.03;4987728;28;20092;-61
2020/12/15 08:38:24;;;;;;;7.35;4.47;;;;;;;11.13;66.86;97405.38;4987557;28;20038;-64
2020/12/15 08:40:59;;;;;;;8.18;5.47;;;;;;;11.25;66.38;97407.97;4986815;28;20109;-61
2020/12/15 08:43:25;;;;;;;7.85;5.00;;;;;;;11.25;66.40;97388.56;4974244;28;20112;-62
2020/12/15 08:45:52;;;;;;;7.38;5.20;;;;;;;11.40;65.15;97387.66;4987480;28;20114;-63
2020/12/15 08:48:19;;;;;;;7.60;5.10;;;;;;;11.53;65.23;97380.78;4985448;28;20045;-66
2020/12/15 08:50:45;;;;;;;9.35;6.20;;;;;;;11.50;64.98;97365.69;4985138;28;20460;-64
2020/12/15 08:53:11;;;;;;;6.78;4.78;;;;;;;11.81;64.62;97412.66;4986383;28;20505;-63
2020/12/15 08:55:38;;;;;;;8.80;5.80;;;;;;;11.77;66.06;97402.66;4985502;28;20506;-62
2020/12/15 08:58:06;;;;;;;8.00;4.55;;;;;;;11.83;63.27;97378.97;4986581;28;20464;-63
2020/12/15 09:00:36;;;;;;;8.85;5.20;;;;;;;12.02;66.04;97393.63;4986491;28;20045;-62
2020/12/15 09:03:10;;;;;;;9.73;5.45;;;;;;;12.01;63.53;97352.34;4987434;28;20117;-61
2020/12/15 09:05:53;;;;;;;6.05;3.80;;;;;;;12.28;61.14;97401.19;4987475;28;21321;-62
2020/12/15 09:08:20;;;;;;;6.17;3.97;;;;;;;12.37;61.28;97396.16;4971111;28;20034;-60
2020/12/15 09:10:49;;;;;;;5.70;3.83;;;;;;;12.38;62.02;97377.53;4986025;28;20034;-63
2020/12/15 09:13:15;;;;;;;5.75;4.57;;;;;;;12.51;62.75;97393.59;4985990;28;20573;-63
2020/12/15 09:15:49;;;;;;;5.97;4.68;;;;;;;12.77;62.16;97390.00;4986043;28;20036;-61
2020/12/15 09:18:15;;;;;;;11.95;6.07;;;;;;;12.85;59.79;97384.13;4984310;28;20045;-63
2020/12/15 09:20:41;;;;;;;9.90;5.32;;;;;;;12.97;59.42;97389.50;4986330;28;20113;-63
2020/12/15 09:23:07;;;;;;;11.95;4.75;;;;;;;12.96;60.38;97399.00;4984329;28;20584;-61
2020/12/15 09:25:32;;;;;;;6.70;4.57;;;;;;;13.17;60.26;97384.59;4985644;28;20030;-60
2020/12/15 09:27:58;;;;;;;4.82;3.53;;;;;;;13.00;60.41;97341.50;4986676;28;20034;-62
2020/12/15 09:30:23;;;;;;;6.10;3.90;;;;;;;13.31;58.38;97377.22;4986165;28;20038;-59
2020/12/15 09:32:49;;;;;;;3.47;2.55;;;;;;;13.11;57.15;97377.75;4983939;28;20034;-62
2020/12/15 09:35:15;;;;;;;4.22;3.33;;;;;;;12.38;59.10;97306.06;4986648;28;20032;-61
2020/12/15 09:37:41;;;;;;;3.92;2.92;;;;;;;12.32;59.58;97393.69;4987145;28;20030;-62
2020/12/15 09:40:09;;;;;;;6.53;3.53;;;;;;;12.70;59.87;97376.81;4986738;28;20045;-62
2020/12/15 09:42:38;;;;;;;8.18;5.45;;;;;;;12.86;60.49;97371.88;4986893;28;20034;-59
2020/12/15 09:45:06;;;;;;;4.32;2.92;;;;;;;12.42;58.31;97373.63;4984488;28;20104;-60
2020/12/15 09:47:34;;;;;;;3.60;2.88;;;;;;;12.26;58.50;97338.81;4985408;28;20034;-60
2020/12/15 09:50:01;;;;;;;7.03;2.78;;;;;;;12.67;57.52;97369.22;4986224;28;20042;-61
2020/12/15 09:52:28;;;;;;;4.53;2.63;;;;;;;12.07;58.56;97373.06;4986284;28;20038;-61
2020/12/15 09:54:54;;;;;;;3.90;2.97;;;;;;;11.73;58.90;97286.03;4983795;28;20042;-60
2020/12/15 09:57:20;;;;;;;5.68;3.08;;;;;;;12.52;60.23;97370.19;4984537;28;20072;-61
2020/12/15 09:59:46;;;;;;;4.93;2.85;;;;;;;12.85;59.20;97364.69;4985302;28;20034;-60
2020/12/15 10:02:14;;;;;;;2.78;1.88;;;;;;;12.57;55.45;97353.19;4983962;28;20038;-63
2020/12/15 10:04:40;;;;;;;36.78;18.30;;;;;;;12.91;55.22;97363.19;4983971;28;20057;-62
2020/12/15 10:07:05;;;;;;;30.27;14.27;;;;;;;12.99;55.23;97364.88;4985215;28;20502;-62
2020/12/15 10:09:31;;;;;;;14.20;8.60;;;;;;;13.17;55.05;97371.50;4985308;28;20406;-62
2020/12/15 10:11:59;;;;;;;15.68;9.85;;;;;;;13.39;54.74;97372.53;4983956;28;20042;-62
2020/12/15 10:14:24;;;;;;;5.53;3.75;;;;;;;13.36;53.50;97349.06;4985741;28;20466;-62
2020/12/15 10:16:50;;;;;;;3.00;1.98;;;;;;;13.60;52.10;97368.00;4983529;28;20038;-63
2020/12/15 10:19:16;;;;;;;4.57;2.47;;;;;;;13.10;51.40;97293.50;4984887;28;20034;-61
2020/12/15 10:21:41;;;;;;;5.53;4.63;;;;;;;13.33;53.68;97369.28;4983693;28;20479;-62
2020/12/15 10:24:07;;;;;;;4.70;2.55;;;;;;;13.30;52.35;97361.72;4985096;28;20040;-62
2020/12/15 10:26:34;;;;;;;4.18;2.75;;;;;;;12.67;52.72;97307.25;4985403;28;20042;-61
2020/12/15 10:29:00;;;;;;;3.53;2.45;;;;;;;12.71;52.61;97331.13;4978747;28;20046;-61
2020/12/15 10:31:26;;;;;;;7.38;3.53;;;;;;;12.33;51.66;97267.50;4974949;28;20042;-61
2020/12/15 10:33:54;;;;;;;10.15;4.85;;;;;;;12.60;52.69;97330.19;4983156;28;20077;-61
2020/12/15 10:36:20;;;;;;;4.90;3.13;;;;;;;13.03;51.33;97362.97;4985156;28;20057;-62
2020/12/15 10:38:46;;;;;;;3.75;2.95;;;;;;;12.38;52.74;97272.72;4983275;28;20034;-62
2020/12/15 10:41:12;;;;;;;4.85;2.85;;;;;;;12.59;51.63;97316.69;4984651;28;20064;-62
2020/12/15 10:43:39;;;;;;;6.20;3.35;;;;;;;12.88;51.87;97358.38;4985585;28;20246;-63
2020/12/15 10:46:05;;;;;;;2.90;1.70;;;;;;;12.67;51.64;97346.97;4985234;28;20213;-61
2020/12/15 10:48:31;;;;;;;2.85;2.00;;;;;;;12.84;51.88;97357.53;4984450;28;20042;-65
2020/12/15 10:50:57;;;;;;;1.75;1.55;;;;;;;12.08;51.94;97241.38;4985102;28;20027;-61
2020/12/15 10:53:23;;;;;;;3.38;2.30;;;;;;;12.64;51.89;97360.81;4983819;28;20034;-63
2020/12/15 10:55:50;;;;;;;3.40;2.70;;;;;;;12.44;53.05;97314.91;4983435;28;20113;-63
2020/12/15 10:58:18;;;;;;;5.78;2.72;;;;;;;12.88;52.55;97358.38;4984887;28;20038;-60
2020/12/15 11:00:46;;;;;;;2.60;2.20;;;;;;;12.94;52.03;97350.50;4984694;28;20588;-62
2020/12/15 11:03:13;;;;;;;5.47;3.38;;;;;;;12.48;53.38;97299.88;4983598;28;20618;-61
2020/12/15 11:05:40;;;;;;;5.45;3.15;;;;;;;12.68;52.33;97353.31;4966121;28;20069;-63
2020/12/15 11:08:06;;;;;;;5.18;3.08;;;;;;;12.87;52.08;97345.66;4984334;28;20042;-63
2020/12/15 11:10:32;;;;;;;4.47;2.78;;;;;;;12.63;53.00;97301.66;4983634;28;20038;-63
2020/12/15 11:13:01;;;;;;;6.10;3.17;;;;;;;13.04;52.12;97342.31;4983469;28;20138;-62
2020/12/15 11:15:28;;;;;;;2.78;2.13;;;;;;;13.05;51.78;97352.28;4983953;28;20034;-62
2020/12/15 11:17:53;;;;;;;2.42;1.85;;;;;;;13.08;51.71;97350.72;4985666;28;20202;-60
2020/12/15 11:20:19;;;;;;;2.00;1.60;;;;;;;12.52;51.08;97284.03;4985171;28;20038;-65
2020/12/15 11:22:45;;;;;;;2.55;1.92;;;;;;;12.78;51.96;97342.38;4985242;28;20034;-62
2020/12/15 11:25:16;;;;;;;3.00;2.03;;;;;;;12.48;52.30;97294.31;4983065;28;20038;-62
2020/12/15 11:27:41;;;;;;;7.13;2.97;;;;;;;12.90;52.13;97346.91;4983612;28;20038;-62
2020/12/15 11:30:07;;;;;;;3.13;2.30;;;;;;;12.81;51.22;97413.88;4984982;28;20101;-63
2020/12/15 11:32:35;;;;;;;4.10;2.30;;;;;;;12.28;52.50;97256.75;4983418;28;20042;-61
2020/12/15 11:35:01;;;;;;;2.65;1.95;;;;;;;12.87;52.56;97365.13;4983015;28;20489;-65